createdAt,value
2017-09-08T00:00:00.032Z,20.27
2017-09-08T00:02:29.245Z,24.60
2017-09-08T00:04:58.358Z,26.60
2017-09-08T00:07:27.676Z,23.50
2017-09-08T00:09:57.011Z,22.07
2017-09-08T00:12:26.240Z,25.40
2017-09-08T00:14:55.871Z,23.53
2017-09-08T00:17:24.972Z,21.93
2017-09-08T00:19:54.492Z,23.53
2017-09-08T00:22:24.086Z,28.40
2017-09-08T00:24:53.231Z,22.37
2017-09-08T00:27:22.454Z,22.33
2017-09-08T00:29:51.804Z,22.47
2017-09-08T00:32:20.893Z,23.47
2017-09-08T00:34:50.178Z,24.40
2017-09-08T00:37:19.662Z,24.80
2017-09-08T00:39:49.099Z,25.40
2017-09-08T00:42:18.206Z,24.63
2017-09-08T00:44:47.567Z,22.07
2017-09-08T00:47:16.713Z,24.50
2017-09-08T00:49:46.888Z,23.00
2017-09-08T00:52:16.460Z,24.90
2017-09-08T00:54:45.801Z,24.17
2017-09-08T00:57:15.977Z,33.30
2017-09-08T00:59:45.248Z,21.80
2017-09-08T01:02:14.773Z,21.73
2017-09-08T01:04:44.169Z,23.53
2017-09-08T01:07:13.425Z,23.67
2017-09-08T01:09:42.638Z,22.93
2017-09-08T01:12:11.991Z,26.00
2017-09-08T01:14:41.307Z,23.07
2017-09-08T01:17:10.758Z,27.67
2017-09-08T01:19:40.206Z,23.03
2017-09-08T01:22:09.604Z,26.60
2017-09-08T01:24:38.898Z,24.23
2017-09-08T01:27:07.743Z,22.60
2017-09-08T01:29:37.500Z,28.03
2017-09-08T01:32:06.586Z,25.83
2017-09-08T01:34:35.761Z,22.30
2017-09-08T01:37:05.049Z,23.43
2017-09-08T01:39:34.556Z,24.20
2017-09-08T01:42:03.868Z,19.90
2017-09-08T01:44:33.125Z,22.83
2017-09-08T01:47:02.293Z,22.17
2017-09-08T01:49:31.660Z,20.47
2017-09-08T01:52:03.144Z,20.87
2017-09-08T01:54:32.980Z,22.73
2017-09-08T01:57:01.714Z,19.57
2017-09-08T01:59:31.677Z,24.27
2017-09-08T02:02:00.809Z,21.90
2017-09-08T02:04:30.089Z,19.53
2017-09-08T02:07:00.599Z,19.80
2017-09-08T02:09:30.185Z,20.53
2017-09-08T02:11:59.360Z,21.80
2017-09-08T02:14:29.046Z,21.20
2017-09-08T02:16:57.724Z,20.60
2017-09-08T02:19:26.467Z,21.87
2017-09-08T02:22:01.692Z,21.63
2017-09-08T02:24:30.907Z,22.67
2017-09-08T02:27:01.214Z,21.53
2017-09-08T02:29:30.531Z,21.10
2017-09-08T02:31:59.589Z,21.27
2017-09-08T02:34:28.253Z,20.67
2017-09-08T02:36:57.959Z,21.70
2017-09-08T02:39:27.033Z,20.77
2017-09-08T02:41:56.424Z,22.77
2017-09-08T02:44:25.657Z,29.63
2017-09-08T02:46:55.146Z,21.43
2017-09-08T02:49:24.521Z,24.60
2017-09-08T02:51:53.775Z,20.20
2017-09-08T02:54:24.254Z,26.00
2017-09-08T02:56:53.899Z,22.23
2017-09-08T02:59:22.992Z,21.53
2017-09-08T03:01:52.258Z,26.30
2017-09-08T03:04:21.424Z,21.40
2017-09-08T03:06:51.328Z,28.40
2017-09-08T03:09:20.577Z,25.80
2017-09-08T03:11:49.856Z,27.27
2017-09-08T03:14:18.619Z,20.47
2017-09-08T03:16:48.219Z,24.03
2017-09-08T03:19:17.412Z,23.40
2017-09-08T03:21:46.725Z,23.93
2017-09-08T03:24:16.267Z,30.20
2017-09-08T03:26:45.585Z,33.63
2017-09-08T03:29:15.037Z,28.47
2017-09-08T03:31:44.461Z,31.23
2017-09-08T03:34:13.996Z,29.23
2017-09-08T03:36:42.773Z,30.17
2017-09-08T03:39:11.740Z,27.70
2017-09-08T03:41:40.958Z,25.73
2017-09-08T03:44:10.290Z,29.10
2017-09-08T03:46:39.677Z,28.90
2017-09-08T03:49:09.353Z,26.43
2017-09-08T03:51:38.633Z,23.57
2017-09-08T03:54:08.210Z,21.50
2017-09-08T03:56:38.778Z,22.67
2017-09-08T03:59:07.498Z,26.80
2017-09-08T04:01:36.403Z,26.73
2017-09-08T04:04:05.768Z,23.30
2017-09-08T04:06:36.014Z,22.20
2017-09-08T04:09:05.590Z,21.83
2017-09-08T04:11:35.789Z,20.23
2017-09-08T04:14:05.121Z,17.90
2017-09-08T04:16:34.650Z,17.10
2017-09-08T04:19:03.927Z,16.00
2017-09-08T04:21:34.568Z,15.13
2017-09-08T04:24:03.254Z,14.87
2017-09-08T04:26:32.946Z,17.53
2017-09-08T04:29:02.265Z,16.83
2017-09-08T04:31:31.773Z,20.30
2017-09-08T04:34:00.493Z,15.87
2017-09-08T04:36:29.986Z,17.77
2017-09-08T04:38:59.669Z,19.33
2017-09-08T04:41:28.413Z,17.77
2017-09-08T04:43:57.907Z,18.07
2017-09-08T04:46:26.642Z,22.53
2017-09-08T04:48:55.959Z,15.20
2017-09-08T04:51:25.315Z,19.37
2017-09-08T04:53:54.531Z,18.97
2017-09-08T04:56:23.746Z,21.97
2017-09-08T04:58:53.538Z,21.60
2017-09-08T05:01:22.891Z,21.40
2017-09-08T05:03:52.231Z,27.20
2017-09-08T05:06:23.294Z,20.90
2017-09-08T05:08:52.767Z,20.93
2017-09-08T05:11:22.015Z,22.53
2017-09-08T05:13:51.431Z,20.70
2017-09-08T05:16:20.803Z,17.70
2017-09-08T05:18:50.466Z,21.43
2017-09-08T05:21:19.634Z,19.10
2017-09-08T05:23:48.807Z,17.97
2017-09-08T05:26:18.257Z,19.50
2017-09-08T05:28:47.535Z,19.93
2017-09-08T05:31:17.550Z,18.33
2017-09-08T05:33:47.051Z,19.73
2017-09-08T05:36:16.361Z,18.83
2017-09-08T05:38:45.559Z,17.73
2017-09-08T05:41:14.881Z,17.70
2017-09-08T05:43:44.361Z,18.50
2017-09-08T05:46:13.926Z,16.37
2017-09-08T05:48:43.309Z,23.73
2017-09-08T05:51:12.518Z,18.23
2017-09-08T05:53:41.626Z,16.87
2017-09-08T05:56:10.908Z,19.60
2017-09-08T05:58:40.462Z,19.33
2017-09-08T06:01:10.938Z,17.33
2017-09-08T06:03:40.248Z,21.50
2017-09-08T06:06:09.575Z,18.93
2017-09-08T06:08:38.645Z,18.10
2017-09-08T06:11:07.880Z,18.40
2017-09-08T06:13:38.117Z,17.23
2017-09-08T06:16:07.450Z,19.73
2017-09-08T06:18:36.745Z,18.37
2017-09-08T06:21:06.113Z,16.87
2017-09-08T06:23:35.347Z,20.30
2017-09-08T06:26:04.557Z,18.47
2017-09-08T06:28:33.771Z,19.07
2017-09-08T06:31:03.272Z,18.63
2017-09-08T06:33:32.661Z,17.40
2017-09-08T06:36:02.111Z,20.00
2017-09-08T06:38:31.396Z,20.47
2017-09-08T06:41:01.058Z,18.73
2017-09-08T06:43:30.496Z,18.90
2017-09-08T06:45:59.828Z,20.17
2017-09-08T06:48:29.972Z,19.27
2017-09-08T06:50:59.256Z,24.00
2017-09-08T06:53:28.522Z,21.30
2017-09-08T06:55:58.432Z,20.47
2017-09-08T06:58:27.655Z,21.00
2017-09-08T07:00:57.735Z,22.80
2017-09-08T07:03:28.116Z,19.90
2017-09-08T07:05:57.321Z,20.30
2017-09-08T07:08:26.598Z,21.43
2017-09-08T07:10:56.963Z,19.33
2017-09-08T07:13:26.336Z,24.23
2017-09-08T07:15:55.686Z,19.43
2017-09-08T07:18:25.260Z,22.57
2017-09-08T07:20:54.596Z,20.67
2017-09-08T07:23:23.879Z,18.53
2017-09-08T07:25:53.337Z,22.23
2017-09-08T07:28:22.847Z,20.83
2017-09-08T07:30:52.117Z,22.07
2017-09-08T07:33:21.358Z,22.80
2017-09-08T07:35:50.615Z,20.10
2017-09-08T07:38:19.946Z,24.90
2017-09-08T07:40:49.621Z,22.40
2017-09-08T07:43:18.826Z,18.43
2017-09-08T07:45:48.468Z,24.67
2017-09-08T07:48:17.972Z,19.93
2017-09-08T07:50:47.489Z,20.27
2017-09-08T07:53:17.408Z,20.53
2017-09-08T07:55:46.707Z,18.30
2017-09-08T07:58:16.135Z,20.60
2017-09-08T08:00:45.556Z,23.13
2017-09-08T08:03:15.256Z,23.30
2017-09-08T08:05:45.660Z,21.90
2017-09-08T08:08:15.027Z,20.00
2017-09-08T08:10:44.321Z,20.80
2017-09-08T08:13:13.852Z,20.37
2017-09-08T08:15:43.222Z,22.97
2017-09-08T08:18:12.673Z,19.37
2017-09-08T08:20:41.912Z,20.60
2017-09-08T08:23:11.009Z,22.07
2017-09-08T08:25:40.277Z,23.60
2017-09-08T08:28:09.707Z,20.50
2017-09-08T08:30:38.865Z,22.73
2017-09-08T08:33:08.005Z,21.23
2017-09-08T08:35:37.393Z,21.50
2017-09-08T08:38:06.679Z,23.67
2017-09-08T08:40:35.840Z,21.53
2017-09-08T08:43:05.210Z,22.80
2017-09-08T08:45:34.376Z,19.60
2017-09-08T08:48:03.754Z,21.93
2017-09-08T08:50:33.284Z,19.83
2017-09-08T08:53:02.729Z,21.90
2017-09-08T08:55:31.892Z,22.50
2017-09-08T08:58:01.344Z,19.80
2017-09-08T09:00:31.341Z,20.07
2017-09-08T09:03:00.544Z,25.30
2017-09-08T09:05:29.899Z,18.17
2017-09-08T09:08:00.376Z,17.70
2017-09-08T09:10:29.554Z,17.30
2017-09-08T09:12:59.026Z,16.53
2017-09-08T09:15:28.454Z,12.87
2017-09-08T09:17:57.739Z,12.20
2017-09-08T09:20:27.071Z,14.23
2017-09-08T09:22:56.142Z,11.00
2017-09-08T09:25:25.606Z,12.13
2017-09-08T09:27:54.876Z,12.63
2017-09-08T09:30:24.114Z,12.00
2017-09-08T09:32:54.422Z,10.57
2017-09-08T09:35:23.455Z,9.60
2017-09-08T09:37:52.719Z,10.90
2017-09-08T09:40:21.990Z,11.57
2017-09-08T09:42:51.225Z,10.23
2017-09-08T09:45:21.593Z,8.77
2017-09-08T09:47:51.118Z,10.20
2017-09-08T09:50:20.325Z,10.57
2017-09-08T09:52:49.716Z,8.23
2017-09-08T09:55:18.954Z,10.20
2017-09-08T09:57:49.203Z,12.33
2017-09-08T10:00:18.510Z,9.67
2017-09-08T10:02:47.647Z,9.77
2017-09-08T10:05:17.139Z,11.43
2017-09-08T10:07:46.365Z,11.93
2017-09-08T10:10:16.077Z,9.73
2017-09-08T10:12:45.385Z,9.23
2017-09-08T10:15:14.832Z,9.93
2017-09-08T10:17:44.219Z,9.73
2017-09-08T10:20:13.489Z,8.90
2017-09-08T10:22:42.711Z,9.00
2017-09-08T10:25:11.913Z,9.33
2017-09-08T10:27:41.338Z,9.53
2017-09-08T10:30:10.736Z,8.37
2017-09-08T10:32:39.973Z,10.33
2017-09-08T10:35:09.470Z,8.47
2017-09-08T10:37:38.697Z,8.50
2017-09-08T10:40:08.076Z,10.30
2017-09-08T10:42:37.312Z,9.70
2017-09-08T10:45:06.752Z,9.00
2017-09-08T10:47:35.955Z,8.77
2017-09-08T10:50:05.364Z,9.03
2017-09-08T10:52:34.756Z,10.27
2017-09-08T10:55:04.035Z,9.83
2017-09-08T10:57:33.414Z,11.07
2017-09-08T11:00:02.796Z,10.27
2017-09-08T11:02:32.078Z,8.13
2017-09-08T11:05:01.290Z,10.27
2017-09-08T11:07:30.619Z,8.47
2017-09-08T11:10:00.616Z,11.10
2017-09-08T11:12:31.477Z,10.07
2017-09-08T11:15:00.687Z,9.77
2017-09-08T11:17:30.002Z,12.13
2017-09-08T11:19:59.201Z,10.40
2017-09-08T11:22:28.470Z,8.37
2017-09-08T11:24:59.384Z,10.13
2017-09-08T11:27:28.592Z,9.90
2017-09-08T11:29:57.941Z,10.27
2017-09-08T11:32:32.597Z,8.60
2017-09-08T11:35:07.439Z,8.73
2017-09-08T11:37:36.578Z,8.83
2017-09-08T11:40:06.759Z,9.63
2017-09-08T11:42:36.057Z,9.13
2017-09-08T11:45:05.552Z,10.53
2017-09-08T11:47:34.814Z,9.57
2017-09-08T11:50:04.297Z,9.90
2017-09-08T11:52:34.610Z,10.93
2017-09-08T11:55:03.762Z,13.83
2017-09-08T11:57:33.372Z,9.97
2017-09-08T12:00:02.741Z,9.13
2017-09-08T12:02:31.981Z,9.30
2017-09-08T12:05:01.335Z,11.37
2017-09-08T12:07:31.419Z,9.33
2017-09-08T12:10:00.685Z,8.60
2017-09-08T12:12:31.621Z,10.00
2017-09-08T12:15:01.027Z,8.73
2017-09-08T12:17:30.172Z,9.60
2017-09-08T12:19:59.686Z,8.97
2017-09-08T12:22:29.793Z,9.93
2017-09-08T12:24:59.229Z,13.70
2017-09-08T12:27:28.491Z,9.70
2017-09-08T12:29:57.760Z,10.50
2017-09-08T12:32:26.871Z,13.40
2017-09-08T12:34:56.377Z,8.73
2017-09-08T12:37:25.460Z,9.23
2017-09-08T12:39:54.781Z,9.37
2017-09-08T12:42:24.328Z,9.80
2017-09-08T12:44:53.632Z,9.57
2017-09-08T12:47:22.951Z,10.40
2017-09-08T12:49:52.450Z,10.83
2017-09-08T12:52:21.556Z,9.47
2017-09-08T12:54:50.879Z,13.13
2017-09-08T12:57:20.223Z,10.23
2017-09-08T12:59:49.636Z,12.53
2017-09-08T13:02:18.952Z,9.40
2017-09-08T13:04:48.130Z,10.57
2017-09-08T13:07:17.445Z,11.93
2017-09-08T13:09:46.959Z,11.67
2017-09-08T13:12:16.320Z,11.20
2017-09-08T13:14:46.277Z,11.33
2017-09-08T13:17:15.588Z,9.80
2017-09-08T13:19:44.948Z,8.83
2017-09-08T13:22:14.582Z,9.40
2017-09-08T13:24:43.801Z,8.93
2017-09-08T13:27:13.075Z,10.80
2017-09-08T13:29:42.400Z,9.70
2017-09-08T13:32:11.629Z,11.53
2017-09-08T13:34:40.787Z,9.77
2017-09-08T13:37:10.035Z,10.00
2017-09-08T13:39:39.315Z,11.40
2017-09-08T13:42:08.663Z,11.87
2017-09-08T13:44:38.724Z,10.50
2017-09-08T13:47:08.459Z,11.17
2017-09-08T13:49:37.851Z,9.83
2017-09-08T13:52:07.212Z,10.47
2017-09-08T13:54:36.550Z,11.37
2017-09-08T13:57:05.821Z,11.53
2017-09-08T13:59:35.308Z,11.17
2017-09-08T14:02:05.405Z,12.80
2017-09-08T14:04:34.804Z,11.33
2017-09-08T14:07:03.993Z,13.47
2017-09-08T14:09:33.398Z,13.23
2017-09-08T14:12:02.887Z,12.20
2017-09-08T14:14:32.786Z,10.60
2017-09-08T14:17:02.832Z,12.33
2017-09-08T14:19:32.062Z,11.67
2017-09-08T14:22:01.438Z,12.03
2017-09-08T14:24:30.744Z,14.20
2017-09-08T14:26:59.862Z,11.50
2017-09-08T14:29:29.364Z,11.40
2017-09-08T14:31:58.673Z,11.20
2017-09-08T14:34:28.045Z,12.07
2017-09-08T14:36:57.364Z,12.83
2017-09-08T14:39:26.791Z,13.60
2017-09-08T14:41:56.224Z,11.33
2017-09-08T14:44:25.460Z,11.20
2017-09-08T14:46:54.850Z,12.77
2017-09-08T14:49:24.452Z,10.97
2017-09-08T14:51:53.640Z,11.60
2017-09-08T14:54:23.021Z,10.33
2017-09-08T14:56:52.291Z,12.30
2017-09-08T14:59:21.739Z,10.60
2017-09-08T15:01:51.230Z,11.23
2017-09-08T15:04:20.347Z,12.77
2017-09-08T15:06:49.588Z,10.80
2017-09-08T15:09:19.549Z,13.37
2017-09-08T15:11:48.925Z,11.57
2017-09-08T15:14:18.337Z,13.50
2017-09-08T15:16:47.041Z,11.90
2017-09-08T15:19:16.522Z,10.77
2017-09-08T15:21:45.314Z,10.63
2017-09-08T15:24:14.143Z,11.20
2017-09-08T15:26:42.989Z,11.10
2017-09-08T15:29:11.940Z,12.20
2017-09-08T15:31:41.181Z,11.17
2017-09-08T15:34:10.487Z,12.50
2017-09-08T15:36:39.849Z,13.70
2017-09-08T15:39:09.254Z,13.80
2017-09-08T15:41:38.415Z,13.40
2017-09-08T15:44:07.781Z,13.03
2017-09-08T15:46:37.849Z,12.90
2017-09-08T15:49:07.139Z,13.67
2017-09-08T15:51:36.643Z,13.43
2017-09-08T15:54:06.073Z,12.60
2017-09-08T15:56:35.356Z,12.87
2017-09-08T15:59:04.740Z,13.77
2017-09-08T16:01:34.125Z,13.30
2017-09-08T16:04:03.199Z,14.23
2017-09-08T16:06:32.584Z,15.33
2017-09-08T16:09:01.747Z,16.47
2017-09-08T16:11:30.913Z,18.43
2017-09-08T16:14:00.337Z,14.17
2017-09-08T16:16:29.588Z,13.80
2017-09-08T16:18:58.734Z,17.53
2017-09-08T16:21:28.637Z,17.27
2017-09-08T16:23:58.257Z,17.20
2017-09-08T16:26:27.512Z,15.63
2017-09-08T16:28:56.521Z,14.80
2017-09-08T16:31:25.820Z,14.77
2017-09-08T16:33:55.193Z,13.37
2017-09-08T16:36:24.452Z,17.60
2017-09-08T16:38:53.553Z,14.83
2017-09-08T16:41:22.709Z,17.83
2017-09-08T16:43:52.950Z,15.87
2017-09-08T16:46:22.518Z,16.90
2017-09-08T16:48:51.778Z,18.50
2017-09-08T16:51:20.881Z,16.00
2017-09-08T16:53:50.129Z,18.53
2017-09-08T16:56:20.426Z,14.20
2017-09-08T16:58:49.682Z,15.20
2017-09-08T17:01:18.965Z,14.43
2017-09-08T17:03:48.378Z,15.23
2017-09-08T17:06:17.653Z,13.97
2017-09-08T17:08:46.984Z,15.20
2017-09-08T17:11:16.671Z,16.23
2017-09-08T17:13:46.808Z,17.73
2017-09-08T17:16:16.214Z,15.53
2017-09-08T17:18:47.195Z,14.80
2017-09-08T17:21:16.787Z,17.13
2017-09-08T17:23:47.028Z,16.40
2017-09-08T17:26:16.712Z,15.57
2017-09-08T17:28:49.963Z,15.80
2017-09-08T17:31:19.183Z,14.60
2017-09-08T17:33:48.704Z,16.93
2017-09-08T17:36:18.132Z,18.83
2017-09-08T17:38:47.463Z,17.50
2017-09-08T17:41:16.661Z,19.43
2017-09-08T17:43:45.939Z,14.93
2017-09-08T17:46:15.193Z,17.23
2017-09-08T17:48:44.445Z,16.00
2017-09-08T17:51:13.714Z,15.47
2017-09-08T17:53:42.858Z,17.63
2017-09-08T17:56:11.873Z,16.30
2017-09-08T17:58:41.138Z,15.50
2017-09-08T18:01:10.763Z,14.23
2017-09-08T18:03:40.829Z,15.70
2017-09-08T18:06:10.359Z,15.33
2017-09-08T18:08:40.484Z,16.10
2017-09-08T18:11:09.650Z,15.07
2017-09-08T18:13:38.956Z,15.50
2017-09-08T18:16:08.392Z,15.20
2017-09-08T18:18:37.867Z,15.80
2017-09-08T18:21:07.552Z,15.67
2017-09-08T18:23:36.575Z,14.47
2017-09-08T18:26:06.753Z,15.00
2017-09-08T18:28:36.695Z,14.67
2017-09-08T18:31:05.873Z,15.20
2017-09-08T18:33:35.681Z,16.83
2017-09-08T18:36:06.052Z,14.27
2017-09-08T18:38:35.664Z,13.10
2017-09-08T18:41:05.079Z,13.90
2017-09-08T18:43:34.345Z,13.83
2017-09-08T18:46:03.576Z,14.63
2017-09-08T18:48:32.797Z,13.97
2017-09-08T18:51:02.036Z,13.80
2017-09-08T18:53:31.461Z,13.70
2017-09-08T18:56:00.676Z,12.70
2017-09-08T18:58:29.776Z,13.13
2017-09-08T19:00:59.034Z,17.13
2017-09-08T19:03:28.402Z,14.03
2017-09-08T19:05:58.440Z,13.23
2017-09-08T19:08:28.498Z,13.20
2017-09-08T19:10:57.767Z,13.50
2017-09-08T19:13:27.286Z,13.60
2017-09-08T19:15:56.991Z,13.00
2017-09-08T19:18:26.764Z,14.07
2017-09-08T19:20:56.097Z,14.37
2017-09-08T19:23:26.143Z,13.93
2017-09-08T19:25:55.590Z,16.30
2017-09-08T19:28:26.385Z,16.53
2017-09-08T19:30:55.444Z,13.43
2017-09-08T19:33:24.795Z,13.27
2017-09-08T19:35:54.069Z,14.03
2017-09-08T19:38:23.632Z,15.33
2017-09-08T19:40:53.183Z,12.33
2017-09-08T19:43:22.540Z,10.70
2017-09-08T19:45:51.810Z,11.73
2017-09-08T19:48:20.909Z,9.13
2017-09-08T19:50:50.366Z,8.00
2017-09-08T19:53:19.618Z,7.20
2017-09-08T19:55:49.053Z,7.60
2017-09-08T19:58:18.424Z,7.57
2017-09-08T20:00:47.654Z,8.23
2017-09-08T20:03:16.818Z,8.27
2017-09-08T20:05:46.322Z,9.53
2017-09-08T20:08:15.804Z,8.40
2017-09-08T20:10:44.880Z,9.73
2017-09-08T20:13:14.146Z,10.90
2017-09-08T20:15:43.498Z,9.50
2017-09-08T20:18:12.979Z,9.30
2017-09-08T20:20:42.367Z,9.27
2017-09-08T20:23:12.254Z,9.00
2017-09-08T20:25:41.438Z,10.30
2017-09-08T20:28:12.805Z,10.07
2017-09-08T20:30:43.698Z,11.67
2017-09-08T20:33:13.306Z,10.73
2017-09-08T20:35:43.516Z,10.87
2017-09-08T20:38:12.827Z,10.10
2017-09-08T20:40:42.362Z,10.40
2017-09-08T20:43:11.829Z,9.97
2017-09-08T20:45:41.063Z,10.13
2017-09-08T20:48:10.392Z,10.00
2017-09-08T20:50:39.908Z,11.27
2017-09-08T20:53:09.321Z,11.30
2017-09-08T20:55:38.419Z,11.77
2017-09-08T20:58:07.751Z,11.87
2017-09-08T21:00:37.098Z,11.87
2017-09-08T21:03:07.150Z,9.77
2017-09-08T21:05:36.602Z,11.10
2017-09-08T21:08:05.990Z,9.20
2017-09-08T21:10:35.648Z,10.67
2017-09-08T21:13:06.138Z,11.63
2017-09-08T21:15:36.239Z,12.67
2017-09-08T21:18:05.720Z,11.70
2017-09-08T21:20:35.086Z,12.10
2017-09-08T21:23:07.142Z,12.07
2017-09-08T21:25:36.883Z,12.43
2017-09-08T21:28:07.449Z,11.43
2017-09-08T21:30:36.725Z,12.03
2017-09-08T21:33:07.078Z,12.30
2017-09-08T21:35:36.274Z,13.73
2017-09-08T21:38:05.788Z,12.17
2017-09-08T21:40:35.246Z,11.73
2017-09-08T21:43:05.479Z,13.50
2017-09-08T21:45:34.755Z,11.30
2017-09-08T21:48:04.983Z,11.93
2017-09-08T21:50:34.288Z,11.20
2017-09-08T21:53:03.546Z,11.60
2017-09-08T21:55:32.830Z,12.03
2017-09-08T21:58:02.111Z,12.23
2017-09-08T22:00:31.541Z,12.17
2017-09-08T22:03:00.755Z,13.40
2017-09-08T22:05:29.927Z,12.40
2017-09-08T22:07:59.358Z,14.57
2017-09-08T22:10:28.515Z,13.00
2017-09-08T22:12:57.973Z,14.67
2017-09-08T22:15:27.339Z,11.60
2017-09-08T22:17:56.540Z,15.70
2017-09-08T22:20:25.997Z,12.00
2017-09-08T22:22:55.546Z,12.83
2017-09-08T22:25:24.789Z,13.97
2017-09-08T22:27:54.920Z,14.27
2017-09-08T22:30:24.335Z,13.30
2017-09-08T22:32:53.737Z,15.27
2017-09-08T22:35:23.680Z,14.00
2017-09-08T22:37:53.259Z,14.17
2017-09-08T22:40:22.574Z,14.57
2017-09-08T22:42:51.904Z,14.77
2017-09-08T22:45:21.278Z,15.80
2017-09-08T22:47:50.697Z,14.90
2017-09-08T22:50:20.095Z,14.60
2017-09-08T22:52:49.401Z,14.23
2017-09-08T22:55:18.732Z,14.20
2017-09-08T22:57:47.889Z,13.67
2017-09-08T23:00:17.254Z,14.63
2017-09-08T23:02:47.483Z,13.10
2017-09-08T23:05:16.321Z,11.80
2017-09-08T23:07:45.637Z,12.13
2017-09-08T23:10:15.032Z,12.70
2017-09-08T23:12:44.349Z,11.47
2017-09-08T23:15:13.453Z,11.80
2017-09-08T23:17:42.897Z,11.77
2017-09-08T23:20:12.017Z,12.63
2017-09-08T23:22:40.671Z,12.07
2017-09-08T23:25:09.419Z,11.73
2017-09-08T23:27:38.760Z,11.60
2017-09-08T23:30:08.265Z,12.40
2017-09-08T23:32:37.527Z,11.43
2017-09-08T23:35:06.995Z,10.60
2017-09-08T23:37:37.210Z,11.20
2017-09-08T23:40:06.171Z,11.70
2017-09-08T23:42:35.725Z,12.27
2017-09-08T23:45:05.280Z,10.80
2017-09-08T23:47:34.586Z,9.43
2017-09-08T23:50:03.927Z,10.07
2017-09-08T23:52:33.386Z,11.00
2017-09-08T23:55:02.741Z,10.93
2017-09-08T23:57:31.987Z,11.47
